Pagrindinis puslapis
METAR-TAF:

METAR-TAF

Oro uostai :

Tarptautinis Brazilijos oro uostas

Brazilija, Federal District, Brazilija

platuma: 15-52S, ilguma: 047-56W, Aukštis: 1061 m

Dabartinis oras

Ataskaita buvo paskelbta 27 minutes, ne 00:00 UTC
Vėjas 7 kt iš Rytų
Temperatūra 20°C
Drėgmė 56%
Slėgis 1027 hPa
Matomumas 10 km arba daugiau
nėra debesų žemiau 1500 m ir nėra kamuolinių lietaus debesų

METAR: SBBR 020000Z 10007KT CAVOK 20/11 Q1027

Laikas: 21:27 (00:27 UTC)

Prognozė

Ataskaita buvo paskelbta 2 valandos ir 27 minutes, ne 22:00 UTC
Prognozė galioja nuo 02 metu 00 UTC su 02 metu 24 UTC
Vėjas 10 kt iš Rytų
Matomumas 10 km arba daugiau
nėra debesų žemiau 1500 m ir nėra kamuolinių lietaus debesų

TAF: SBBR 012200Z 0200/0224 08010KT CAVOK TN13/0209Z TX25/0218Z RMK PGD

Orai ataskaitas ir orų prognozės (METAR, TAF).

turimą stotys yra geltonos ir raudonos taškus žemėlapyje.

Perkelti pele per norėdami pamatyti stoties vardą.

Tada spustelėkite, norėdami matyti oro stebėjimo ir prognozės.

Norėdami pakeisti žemėlapį: spustelėkite ant žalios mygtukų su juodo kryžiaus žemyn,; žalią mygtuką su brūkšneliu, jei norite nutolinti; arba žalių rodyklių gretimoms žemėlapius.


METAR-TAF: